Terminal Aerodrome Forecast
Issued by NWS Sioux Falls, SD

Home | Current Version | Previous Version | Text Only | Print | Product List | Glossary On
Versions: 1 2 3 4 5 6 7 8 9 10 11 12 13 14 15 16 17 18 19 20 21 22 23 24 25
094
FTUS43 KFSD 270308 AAA
TAFHON
TAF AMD
KHON 270308Z 2703/2724 06011KT P6SM -SHRA OVC008
     FM271000 05019G27KT 6SM SHRA OVC012
     FM271500 05019G26KT 3SM SHRA OVC015=

USA.gov is the U.S. government's official web portal to all federal, state and local government web resources and services.